Time;durP1;ratioP1;P1;durP2;ratioP2;P2;SDS_P1;SDS_P2;PMS_P1;PMS_P2;Temp;Humidity;BMP_temperature;BMP_pressure;BME280_temperature;BME280_humidity;BME280_pressure;Samples;Min_cycle;Max_cycle;Signal;HPM_P1;HPM_P2
2023/05/19 00:01:36;;;;;;;;;;;;;;;21.02;48.72;102054.92;2325977;75;49574;-73
2023/05/19 00:04:39;;;;;;;;;;;;;;;21.02;48.69;102056.27;2352930;75;50334;-73
2023/05/19 00:07:40;;;;;;;;;;;;;;;21.03;48.76;102059.79;2352585;75;50665;-73
2023/05/19 00:10:42;;;;;;;;;;;;;;;21.02;48.61;102063.50;2353056;75;51431;-73
2023/05/19 00:13:47;;;;;;;;;;;;;;;21.01;48.70;102062.63;2351181;75;50291;-73
2023/05/19 00:16:47;;;;;;;;;;;;;;;21.01;48.81;102065.33;2349970;74;23070;-73
2023/05/19 00:19:49;;;;;;;;;;;;;;;21.00;48.71;102069.03;2358747;73;50075;-73
2023/05/19 00:22:51;;;;;;;;;;;;;;;21.01;48.80;102063.14;2354801;74;51634;-73
2023/05/19 00:25:52;;;;;;;;;;;;;;;21.00;48.80;102063.65;2355189;74;51441;-73
2023/05/19 00:28:54;;;;;;;;;;;;;;;21.00;48.79;102061.47;2380264;73;51574;-73
2023/05/19 00:31:56;;;;;;;;;;;;;;;21.00;48.80;102060.96;2353102;75;51957;-73
2023/05/19 00:34:57;;;;;;;;;;;;;;;21.00;48.77;102065.51;2353146;75;50279;-73
2023/05/19 00:37:59;;;;;;;;;;;;;;;20.99;48.83;102060.63;2352663;74;51201;-72
2023/05/19 00:41:01;;;;;;;;;;;;;;;20.99;48.91;102053.91;2380839;73;50111;-72
2023/05/19 00:44:02;;;;;;;;;;;;;;;20.98;48.82;102057.59;2353138;75;50302;-73
2023/05/19 00:47:04;;;;;;;;;;;;;;;20.98;48.85;102050.86;2348251;75;50249;-73
2023/05/19 00:50:05;;;;;;;;;;;;;;;20.98;48.86;102060.27;2325528;75;51136;-73
2023/05/19 00:53:07;;;;;;;;;;;;;;;20.97;48.95;102053.22;2339979;74;53695;-73
2023/05/19 00:56:09;;;;;;;;;;;;;;;20.97;49.00;102051.88;2313500;75;51427;-73
2023/05/19 00:59:10;;;;;;;;;;;;;;;20.98;49.06;102059.44;2317044;76;50342;-73
2023/05/19 01:02:12;;;;;;;;;;;;;;;20.97;49.07;102059.95;2294643;76;49610;-74
2023/05/19 01:05:13;;;;;;;;;;;;;;;20.98;49.00;102062.97;2328723;75;50628;-73
2023/05/19 01:08:15;;;;;;;;;;;;;;;20.98;48.98;102063.48;2335434;74;50619;-73
2023/05/19 01:11:16;;;;;;;;;;;;;;;20.98;48.95;102060.79;2309250;77;51521;-73
2023/05/19 01:14:18;;;;;;;;;;;;;;;20.97;49.06;102059.11;2308978;76;52319;-73
2023/05/19 01:17:39;;;;;;;;;;;;;;;20.97;49.11;102059.11;2317991;75;51466;-73
2023/05/19 01:20:48;;;;;;;;;;;;;;;20.96;49.13;102055.59;2319754;76;50675;-73
2023/05/19 01:23:53;;;;;;;;;;;;;;;20.95;49.14;102051.70;2315417;75;51499;-73
2023/05/19 01:26:59;;;;;;;;;;;;;;;20.95;49.18;102053.05;2302509;76;52466;-73
2023/05/19 01:30:11;;;;;;;;;;;;;;;20.95;49.18;102053.89;2315316;75;50299;-73
2023/05/19 01:33:13;;;;;;;;;;;;;;;20.94;49.18;102048.17;2315535;75;50667;-73
2023/05/19 01:36:15;;;;;;;;;;;;;;;20.95;49.14;102049.02;2314862;76;50280;-73
2023/05/19 01:39:16;;;;;;;;;;;;;;;20.95;49.20;102053.05;2314667;75;49959;-73
2023/05/19 01:42:18;;;;;;;;;;;;;;;20.95;49.21;102059.77;2327715;75;50342;-73
2023/05/19 01:45:19;;;;;;;;;;;;;;;20.95;49.20;102060.61;2314959;76;50201;-73
2023/05/19 01:48:21;;;;;;;;;;;;;;;20.93;49.19;102055.89;2327264;75;50271;-73
2023/05/19 01:51:22;;;;;;;;;;;;;;;20.94;49.33;102054.06;2323049;75;51711;-74
2023/05/19 01:54:24;;;;;;;;;;;;;;;20.93;49.26;102050.52;2347827;75;51535;-73
2023/05/19 01:57:31;;;;;;;;;;;;;;;20.93;49.33;102055.05;2354962;75;50630;-74
2023/05/19 02:00:37;;;;;;;;;;;;;;;20.93;49.39;102062.62;2347338;75;51582;-73
2023/05/19 02:03:57;;;;;;;;;;;;;;;20.91;49.40;102048.52;2324512;75;51183;-72
2023/05/19 02:07:00;;;;;;;;;;;;;;;20.92;49.37;102053.38;2367029;74;50774;-74
2023/05/19 02:10:18;;;;;;;;;;;;;;;20.91;49.40;102059.28;2369180;74;50777;-71
2023/05/19 02:13:20;;;;;;;;;;;;;;;20.92;49.36;102058.77;2366296;75;51519;-73
2023/05/19 02:16:23;;;;;;;;;;;;;;;20.91;49.36;102057.06;2374069;73;51654;-73
2023/05/19 02:19:26;;;;;;;;;;;;;;;20.90;49.32;102056.73;2336360;75;50672;-73
2023/05/19 02:22:28;;;;;;;;;;;;;;;20.90;49.38;102054.88;2350254;75;50776;-72
2023/05/19 02:25:29;;;;;;;;;;;;;;;20.88;49.38;102051.03;2347114;75;50260;-72
2023/05/19 02:28:31;;;;;;;;;;;;;;;20.88;49.39;102054.20;2324563;76;51632;-72
2023/05/19 02:31:32;;;;;;;;;;;;;;;20.89;49.41;102055.90;2351362;75;50631;-73
2023/05/19 02:34:34;;;;;;;;;;;;;;;20.87;49.44;102054.70;2347598;74;51516;-72
2023/05/19 02:37:36;;;;;;;;;;;;;;;20.88;49.39;102051.51;2358187;75;50753;-72
2023/05/19 02:40:37;;;;;;;;;;;;;;;20.88;49.38;102055.55;2366799;75;51406;-72
2023/05/19 02:43:39;;;;;;;;;;;;;;;20.88;49.38;102054.20;2367109;74;52241;-73
2023/05/19 02:46:40;;;;;;;;;;;;;;;20.88;49.45;102048.81;2355353;75;51417;-72
2023/05/19 02:49:43;;;;;;;;;;;;;;;20.87;49.46;102046.63;2348492;75;51507;-72
2023/05/19 02:52:44;;;;;;;;;;;;;;;20.87;49.59;102056.56;2351611;75;51538;-73
2023/05/19 02:55:46;;;;;;;;;;;;;;;20.87;49.57;102043.11;2351075;75;50182;-72
2023/05/19 02:58:47;;;;;;;;;;;;;;;20.86;49.58;102049.00;2358849;75;50265;-72
2023/05/19 03:01:49;;;;;;;;;;;;;;;20.84;49.55;102038.89;2367216;75;50710;-72
2023/05/19 03:04:52;;;;;;;;;;;;;;;20.85;49.61;102041.08;2394390;73;52456;-73
2023/05/19 03:07:53;;;;;;;;;;;;;;;20.85;49.60;102044.61;2358255;74;50709;-74
2023/05/19 03:10:55;;;;;;;;;;;;;;;20.82;49.57;102034.17;2358561;74;51471;-73
2023/05/19 03:13:56;;;;;;;;;;;;;;;20.82;49.58;102037.37;2366967;75;51413;-73
2023/05/19 03:16:58;;;;;;;;;;;;;;;20.81;49.44;102033.02;2331876;75;52353;-73
2023/05/19 03:20:00;;;;;;;;;;;;;;;20.81;49.54;102035.70;2322340;75;51512;-73
2023/05/19 03:23:02;;;;;;;;;;;;;;;20.82;49.41;102033.34;2315743;77;50630;-72
2023/05/19 03:26:03;;;;;;;;;;;;;;;20.81;49.44;102028.98;2328753;75;50611;-72
2023/05/19 03:29:05;;;;;;;;;;;;;;;20.81;49.49;102027.64;2301222;76;52799;-73
2023/05/19 03:32:07;;;;;;;;;;;;;;;20.80;49.51;102034.84;2315100;76;52497;-72
2023/05/19 03:35:08;;;;;;;;;;;;;;;20.80;49.50;102040.22;2329375;75;50667;-73
2023/05/19 03:38:10;;;;;;;;;;;;;;;20.81;49.50;102037.05;2326052;75;51490;-72
2023/05/19 03:41:11;;;;;;;;;;;;;;;20.79;49.52;102035.02;2301023;77;51281;-73
2023/05/19 03:44:13;;;;;;;;;;;;;;;20.80;49.54;102040.73;2315093;76;50268;-72
2023/05/19 03:47:14;;;;;;;;;;;;;;;20.80;49.54;102035.34;2324150;74;50689;-72
2023/05/19 03:50:16;;;;;;;;;;;;;;;20.78;49.43;102034.66;2336030;74;50707;-73
2023/05/19 03:53:18;;;;;;;;;;;;;;;20.78;49.45;102033.31;2330873;75;52528;-73
2023/05/19 03:56:21;;;;;;;;;;;;;;;20.79;49.53;102036.36;2351020;75;51460;-72
2023/05/19 03:59:23;;;;;;;;;;;;;;;20.78;49.49;102031.97;2347233;74;22354;-72
2023/05/19 04:02:24;;;;;;;;;;;;;;;20.78;49.48;102038.22;2355124;75;51485;-72
2023/05/19 04:05:26;;;;;;;;;;;;;;;20.79;49.51;102041.75;2327271;75;53371;-73
2023/05/19 04:08:28;;;;;;;;;;;;;;;20.81;49.30;102039.74;2355377;75;50282;-73
2023/05/19 04:11:29;;;;;;;;;;;;;;;20.80;49.51;102034.00;2355585;75;50407;-73
2023/05/19 04:14:31;;;;;;;;;;;;;;;20.78;49.97;102035.53;2353508;75;50793;-72
2023/05/19 04:17:32;;;;;;;;;;;;;;;20.76;50.31;102036.19;2355506;75;51434;-73
2023/05/19 04:20:34;;;;;;;;;;;;;;;20.77;50.27;102034.34;2354801;75;52320;-74
2023/05/19 04:23:35;;;;;;;;;;;;;;;20.78;50.43;102040.05;2350368;74;51374;-73
2023/05/19 04:26:41;;;;;;;;;;;;;;;20.78;50.46;102034.66;2354826;75;51420;-72
2023/05/19 04:29:40;;;;;;;;;;;;;;;20.78;50.49;102040.05;2350987;74;22456;-73
2023/05/19 04:32:42;;;;;;;;;;;;;;;20.78;50.63;102036.87;2350338;75;50236;-74
2023/05/19 04:35:49;;;;;;;;;;;;;;;20.79;50.49;102049.81;2350456;75;50746;-73
2023/05/19 04:38:47;;;;;;;;;;;;;;;20.76;50.65;102047.46;2349253;75;22365;-73
2023/05/19 04:41:48;;;;;;;;;;;;;;;20.79;50.47;102049.30;2360298;74;51526;-73
2023/05/19 04:44:50;;;;;;;;;;;;;;;20.82;50.28;102054.86;2362144;75;50707;-73
2023/05/19 04:47:56;;;;;;;;;;;;;;;20.82;50.35;102044.10;2359715;75;50602;-73
2023/05/19 04:50:55;;;;;;;;;;;;;;;20.84;50.29;102050.17;2351781;74;22387;-73
2023/05/19 04:53:57;;;;;;;;;;;;;;;20.86;50.33;102049.51;2377805;74;52349;-73
2023/05/19 04:56:58;;;;;;;;;;;;;;;20.84;50.25;102054.20;2354699;74;51520;-73
2023/05/19 05:00:00;;;;;;;;;;;;;;;20.87;50.16;102059.25;2354904;75;51432;-73
2023/05/19 05:03:04;;;;;;;;;;;;;;;20.87;50.15;102056.56;2354901;74;51475;-73
2023/05/19 05:06:05;;;;;;;;;;;;;;;20.87;50.05;102052.52;2350878;73;22242;-73
2023/05/19 05:09:06;;;;;;;;;;;;;;;20.83;50.31;102052.02;2354417;74;51517;-73
2023/05/19 05:12:09;;;;;;;;;;;;;;;20.88;50.09;102050.16;2355226;75;51469;-73
2023/05/19 05:15:11;;;;;;;;;;;;;;;20.91;49.97;102057.93;2355104;75;50473;-73
2023/05/19 05:18:13;;;;;;;;;;;;;;;20.93;49.80;102051.85;2330555;74;49701;-73
2023/05/19 05:21:15;;;;;;;;;;;;;;;20.95;49.66;102054.39;2350675;74;51554;-73
2023/05/19 05:24:17;;;;;;;;;;;;;;;20.96;49.58;102062.79;2354909;75;50600;-73
2023/05/19 05:27:18;;;;;;;;;;;;;;;20.98;49.44;102061.63;2354665;75;50472;-73
2023/05/19 05:30:20;;;;;;;;;;;;;;;20.96;49.42;102055.59;2327932;75;51127;-73
2023/05/19 05:33:23;;;;;;;;;;;;;;;20.97;49.33;102060.46;2354921;75;50617;-73
2023/05/19 05:36:25;;;;;;;;;;;;;;;20.95;49.30;102055.23;2350088;74;51609;-73
2023/05/19 05:39:27;;;;;;;;;;;;;;;20.91;49.39;102054.38;2350493;75;51409;-73
2023/05/19 05:42:29;;;;;;;;;;;;;;;20.88;49.44;102062.27;2329186;73;51752;-73
2023/05/19 05:45:31;;;;;;;;;;;;;;;20.88;49.41;102058.23;2354795;74;50289;-74
2023/05/19 05:48:32;;;;;;;;;;;;;;;20.94;49.21;102052.72;2356289;74;50321;-72
2023/05/19 05:51:34;;;;;;;;;;;;;;;20.91;49.24;102053.89;2357623;75;50239;-73
2023/05/19 05:54:36;;;;;;;;;;;;;;;20.92;49.42;102054.22;2387744;74;51423;-73
2023/05/19 05:57:40;;;;;;;;;;;;;;;20.93;49.50;102059.09;2361822;75;51404;-72
2023/05/19 06:00:47;;;;;;;;;;;;;;;20.93;49.45;102050.52;2357931;75;22515;-73
2023/05/19 06:03:47;;;;;;;;;;;;;;;20.95;49.52;102052.54;2359158;75;22285;-73
2023/05/19 06:06:51;;;;;;;;;;;;;;;20.97;49.26;102059.95;2332265;75;52497;-73
2023/05/19 06:09:52;;;;;;;;;;;;;;;20.99;49.25;102055.25;2359867;74;23768;-73
2023/05/19 06:12:54;;;;;;;;;;;;;;;21.01;49.29;102059.11;2360003;75;50218;-73
2023/05/19 06:15:55;;;;;;;;;;;;;;;21.09;49.21;102055.08;2358367;75;50224;-72
2023/05/19 06:18:57;;;;;;;;;;;;;;;21.17;49.17;102059.63;2333108;75;51416;-72
2023/05/19 06:21:59;;;;;;;;;;;;;;;21.21;48.99;102059.14;2353425;75;50249;-73
2023/05/19 06:25:01;;;;;;;;;;;;;;;21.28;48.85;102055.30;2368295;75;51519;-73
2023/05/19 06:28:02;;;;;;;;;;;;;;;21.33;48.70;102054.80;2365330;75;51421;-72
2023/05/19 06:31:04;;;;;;;;;;;;;;;21.36;48.66;102057.98;2333120;75;51210;-72
2023/05/19 06:34:06;;;;;;;;;;;;;;;21.38;48.53;102056.01;2359381;75;50655;-73
2023/05/19 06:37:07;;;;;;;;;;;;;;;21.43;48.24;102056.34;2365916;74;52328;-74
2023/05/19 06:40:09;;;;;;;;;;;;;;;21.43;48.09;102053.66;2358972;75;51542;-74
2023/05/19 06:43:11;;;;;;;;;;;;;;;21.43;47.99;102052.31;2330050;75;49829;-74
2023/05/19 06:46:13;;;;;;;;;;;;;;;21.42;47.84;102056.50;2358707;74;50631;-73
2023/05/19 06:49:14;;;;;;;;;;;;;;;21.42;47.94;102051.95;2358300;75;51261;-75
2023/05/19 06:52:16;;;;;;;;;;;;;;;21.45;47.97;102051.64;2366779;75;51423;-75
2023/05/19 06:55:18;;;;;;;;;;;;;;;21.47;47.93;102045.55;2366386;75;50696;-74
2023/05/19 06:58:19;;;;;;;;;;;;;;;21.47;47.84;102047.41;2360552;75;50363;-75
2023/05/19 07:01:21;;;;;;;;;;;;;;;21.49;47.76;102055.66;2368266;75;50640;-75
2023/05/19 07:04:22;;;;;;;;;;;;;;;21.49;47.76;102052.97;2368345;75;50611;-75
2023/05/19 07:07:25;;;;;;;;;;;;;;;21.48;47.59;102054.00;2333637;75;50098;-75
2023/05/19 07:10:27;;;;;;;;;;;;;;;21.48;47.75;102051.81;2360875;75;51559;-74
2023/05/19 07:13:29;;;;;;;;;;;;;;;21.51;47.73;102052.81;2366147;74;50368;-75
2023/05/19 07:16:30;;;;;;;;;;;;;;;21.56;47.57;102048.28;2357811;75;50648;-74
2023/05/19 07:19:32;;;;;;;;;;;;;;;21.58;47.58;102048.92;2326804;75;51634;-74
2023/05/19 07:22:37;;;;;;;;;;;;;;;21.59;47.50;102060.05;2350776;75;51422;-74
2023/05/19 07:25:39;;;;;;;;;;;;;;;21.57;47.44;102055.33;2350729;75;51498;-75
2023/05/19 07:28:42;;;;;;;;;;;;;;;21.58;47.39;102055.66;2354723;75;50591;-75
2023/05/19 07:31:43;;;;;;;;;;;;;;;21.57;47.55;102062.06;2378020;74;53040;-74
2023/05/19 07:34:45;;;;;;;;;;;;;;;21.58;47.58;102055.66;2350993;75;50368;-74
2023/05/19 07:37:47;;;;;;;;;;;;;;;21.57;47.53;102052.64;2350975;75;50626;-74
2023/05/19 07:40:48;;;;;;;;;;;;;;;21.60;47.48;102061.72;2351329;75;50300;-74
2023/05/19 07:43:50;;;;;;;;;;;;;;;21.59;47.57;102050.63;2327426;75;51184;-74
2023/05/19 07:46:51;;;;;;;;;;;;;;;21.62;47.47;102044.89;2351831;75;50274;-75
2023/05/19 07:49:53;;;;;;;;;;;;;;;21.62;47.44;102036.81;2355347;75;50740;-75
2023/05/19 07:52:55;;;;;;;;;;;;;;;21.63;47.38;102037.14;2350564;75;50596;-76
2023/05/19 07:55:56;;;;;;;;;;;;;;;21.64;47.43;102042.88;2378318;74;51196;-75
2023/05/19 07:58:58;;;;;;;;;;;;;;;21.70;47.39;102036.80;2355182;75;50644;-75
2023/05/19 08:02:00;;;;;;;;;;;;;;;21.70;47.69;102039.49;2355407;74;50513;-75
2023/05/19 08:05:01;;;;;;;;;;;;;;;21.67;47.76;102044.72;2355547;75;49960;-74
2023/05/19 08:08:03;;;;;;;;;;;;;;;21.68;47.72;102031.60;2328087;75;51130;-77
2023/05/19 08:11:05;;;;;;;;;;;;;;;21.67;47.87;102036.63;2355253;74;51429;-74
2023/05/19 08:14:07;;;;;;;;;;;;;;;21.68;48.00;102035.64;2354343;75;50373;-74
2023/05/19 08:17:08;;;;;;;;;;;;;;;21.69;47.86;102039.17;2354775;75;50620;-75
2023/05/19 08:20:15;;;;;;;;;;;;;;;21.69;47.94;102035.97;2316414;75;52450;-75
2023/05/19 08:23:13;;;;;;;;;;;;;;;21.68;47.96;102030.73;2353000;75;22446;-74
2023/05/19 08:26:15;;;;;;;;;;;;;;;21.69;47.94;102035.97;2356415;75;51440;-73
2023/05/19 08:29:16;;;;;;;;;;;;;;;21.67;47.94;102036.63;2356095;75;51511;-74
2023/05/19 08:32:18;;;;;;;;;;;;;;;21.69;47.91;102040.52;2379499;74;52332;-74
2023/05/19 08:35:19;;;;;;;;;;;;;;;21.70;47.91;102046.23;2356127;75;51479;-75
2023/05/19 08:38:21;;;;;;;;;;;;;;;21.69;47.95;102049.95;2356162;74;53943;-74
2023/05/19 08:41:23;;;;;;;;;;;;;;;21.67;48.00;102043.87;2356538;74;53160;-74
2023/05/19 08:44:24;;;;;;;;;;;;;;;21.64;48.03;102045.58;2387213;74;50953;-74
2023/05/19 08:47:26;;;;;;;;;;;;;;;21.63;48.04;102042.05;2354408;75;51395;-74
2023/05/19 08:50:29;;;;;;;;;;;;;;;21.60;48.04;102034.79;2363585;75;50673;-73
2023/05/19 08:53:32;;;;;;;;;;;;;;;21.59;47.42;102034.47;2366291;75;51628;-74
2023/05/19 08:56:34;;;;;;;;;;;;;;;21.58;47.13;102032.77;2332223;75;51747;-73
2023/05/19 08:59:36;;;;;;;;;;;;;;;21.55;47.05;102029.91;2366298;75;50472;-74
2023/05/19 09:02:37;;;;;;;;;;;;;;;21.51;47.14;102024.02;2366144;74;50627;-74
2023/05/19 09:05:39;;;;;;;;;;;;;;;21.52;47.22;102026.20;2365811;75;50632;-73
2023/05/19 09:08:41;;;;;;;;;;;;;;;21.47;47.39;102014.59;2333207;74;51235;-74
2023/05/19 09:11:45;;;;;;;;;;;;;;;21.46;47.45;102012.92;2360277;75;51474;-74
2023/05/19 09:14:46;;;;;;;;;;;;;;;21.44;47.60;102008.71;2365678;75;50384;-74
2023/05/19 09:17:48;;;;;;;;;;;;;;;21.44;47.63;102016.28;2355974;75;50732;-73
2023/05/19 09:20:49;;;;;;;;;;;;;;;21.42;47.63;102006.69;2324615;75;51721;-73
2023/05/19 09:23:51;;;;;;;;;;;;;;;21.43;47.52;101997.11;2350589;75;50648;-73
2023/05/19 09:26:55;;;;;;;;;;;;;;;21.43;47.65;101993.58;2350332;75;50305;-73
2023/05/19 09:29:58;;;;;;;;;;;;;;;21.41;47.64;101999.13;2378111;74;51117;-73
2023/05/19 09:33:00;;;;;;;;;;;;;;;21.42;47.66;101992.71;2325708;75;52476;-73
2023/05/19 09:36:02;;;;;;;;;;;;;;;21.43;47.57;101988.19;2352749;75;50667;-73
2023/05/19 09:39:06;;;;;;;;;;;;;;;21.43;47.56;101989.03;2352308;75;51546;-73
2023/05/19 09:42:08;;;;;;;;;;;;;;;21.47;47.48;101990.35;2350674;75;50411;-73
2023/05/19 09:45:10;;;;;;;;;;;;;;;21.44;47.49;101985.82;2350757;75;50494;-74
2023/05/19 09:48:14;;;;;;;;;;;;;;;21.47;47.40;101990.35;2352338;75;51554;-74
2023/05/19 09:51:16;;;;;;;;;;;;;;;21.48;47.35;101984.48;2365561;74;52417;-74
2023/05/19 09:54:18;;;;;;;;;;;;;;;21.49;47.35;101982.95;2365480;75;50708;-74
2023/05/19 09:57:20;;;;;;;;;;;;;;;21.50;47.26;101979.75;2333162;75;51420;-73
2023/05/19 10:00:22;;;;;;;;;;;;;;;21.49;47.26;101991.03;2360064;75;51656;-75
2023/05/19 10:03:24;;;;;;;;;;;;;;;21.45;47.28;101991.05;2365360;75;50851;-73
2023/05/19 10:06:25;;;;;;;;;;;;;;;21.45;47.35;101978.06;2365166;74;50237;-74
2023/05/19 10:09:28;;;;;;;;;;;;;;;21.48;47.31;101969.67;2333048;74;50973;-74
2023/05/19 10:12:29;;;;;;;;;;;;;;;21.49;47.28;101973.53;2365530;75;51482;-73
2023/05/19 10:15:31;;;;;;;;;;;;;;;21.46;47.25;101956.37;2365544;75;50661;-74
2023/05/19 10:18:33;;;;;;;;;;;;;;;21.43;47.43;101959.92;2353034;75;49981;-74
2023/05/19 10:21:35;;;;;;;;;;;;;;;21.43;47.36;101967.48;2354323;75;50232;-74
2023/05/19 10:24:36;;;;;;;;;;;;;;;21.44;47.38;101969.16;2354365;75;50649;-73
2023/05/19 10:27:43;;;;;;;;;;;;;;;21.41;47.35;101968.16;2354126;75;51519;-74
2023/05/19 10:30:45;;;;;;;;;;;;;;;21.42;47.35;101972.52;2354169;75;51537;-73
2023/05/19 10:33:54;;;;;;;;;;;;;;;21.40;47.28;101954.84;2379420;74;52533;-74
2023/05/19 10:37:00;;;;;;;;;;;;;;;21.39;47.26;101966.64;2354005;75;51411;-74
2023/05/19 10:40:04;;;;;;;;;;;;;;;21.36;47.40;101965.61;2354059;75;50255;-73
2023/05/19 10:43:10;;;;;;;;;;;;;;;21.33;47.42;101961.41;2354319;75;51492;-74
2023/05/19 10:46:12;;;;;;;;;;;;;;;21.34;47.46;101958.20;2329857;75;50108;-73
2023/05/19 10:49:21;;;;;;;;;;;;;;;21.37;47.41;101964.07;2352300;75;52361;-73
2023/05/19 10:52:29;;;;;;;;;;;;;;;21.35;47.42;101960.73;2350768;75;51598;-73
2023/05/19 10:55:46;;;;;;;;;;;;;;;21.36;47.39;101957.02;2350776;73;22754;-73
2023/05/19 10:58:51;;;;;;;;;;;;;;;21.35;47.34;101959.39;2327464;75;52402;-73
2023/05/19 11:01:53;;;;;;;;;;;;;;;21.34;47.31;101956.34;2350657;74;51444;-73
2023/05/19 11:04:57;;;;;;;;;;;;;;;21.34;47.28;101938.84;2377859;74;52313;-73
2023/05/19 11:08:04;;;;;;;;;;;;;;;21.34;47.32;101947.43;2354596;75;22566;-73
2023/05/19 11:11:13;;;;;;;;;;;;;;;21.34;47.31;101944.23;2327612;75;51770;-73
2023/05/19 11:14:15;;;;;;;;;;;;;;;21.34;47.39;101946.92;2355065;75;51448;-74
2023/05/19 11:17:20;;;;;;;;;;;;;;;21.34;47.36;101945.57;2353132;75;51447;-72
2023/05/19 11:20:22;;;;;;;;;;;;;;;21.33;47.33;101952.48;2361051;75;51546;-73
2023/05/19 11:23:25;;;;;;;;;;;;;;;21.32;47.34;101939.51;2388656;73;51190;-73
2023/05/19 11:26:34;;;;;;;;;;;;;;;21.33;47.29;101931.79;2359924;75;51457;-73
2023/05/19 11:29:36;;;;;;;;;;;;;;;21.33;47.21;101939.86;2365355;75;51439;-74
2023/05/19 11:32:37;;;;;;;;;;;;;;;21.32;47.19;101927.39;2365651;75;51606;-73
2023/05/19 11:35:39;;;;;;;;;;;;;;;21.31;47.24;101923.87;2331925;75;51611;-73
2023/05/19 11:38:41;;;;;;;;;;;;;;;21.31;47.23;101917.14;2365216;74;50189;-72
2023/05/19 11:41:43;;;;;;;;;;;;;;;21.31;47.21;101918.48;2365588;75;50267;-73
2023/05/19 11:44:47;;;;;;;;;;;;;;;21.33;47.20;101921.02;2365709;75;50258;-72
2023/05/19 11:47:49;;;;;;;;;;;;;;;21.31;47.18;101923.03;2330926;75;51281;-73
2023/05/19 11:50:51;;;;;;;;;;;;;;;21.32;47.16;101915.28;2350934;75;50374;-73
2023/05/19 11:53:53;;;;;;;;;;;;;;;21.33;47.15;101921.53;2350197;75;51465;-72
2023/05/19 11:56:56;;;;;;;;;;;;;;;21.33;47.14;101915.63;2350590;75;23792;-72
2023/05/19 11:59:57;;;;;;;;;;;;;;;21.32;47.16;101917.97;2377781;74;51254;-73
2023/05/19 12:02:59;;;;;;;;;;;;;;;21.32;47.10;101916.62;2355138;75;50754;-73
2023/05/19 12:06:01;;;;;;;;;;;;;;;21.32;47.09;101917.97;2349895;75;50226;-73
2023/05/19 12:09:04;;;;;;;;;;;;;;;21.32;47.10;101916.62;2349838;74;50407;-73
2023/05/19 12:12:05;;;;;;;;;;;;;;;21.31;47.13;101913.09;2355063;75;51636;-73
2023/05/19 12:15:08;;;;;;;;;;;;;;;21.31;47.08;101926.56;2355138;75;50245;-74
2023/05/19 12:18:10;;;;;;;;;;;;;;;21.31;47.08;101919.83;2357158;75;51612;-73
2023/05/19 12:21:12;;;;;;;;;;;;;;;21.33;47.06;101915.63;2350942;75;50734;-75
2023/05/19 12:24:13;;;;;;;;;;;;;;;21.35;47.11;101916.79;2378060;74;52514;-74
2023/05/19 12:27:18;;;;;;;;;;;;;;;21.32;47.09;101907.20;2350119;75;51576;-73
2023/05/19 12:30:22;;;;;;;;;;;;;;;21.31;47.13;101909.57;2355036;75;51520;-73
2023/05/19 12:33:23;;;;;;;;;;;;;;;21.30;47.10;101906.05;2350340;75;51547;-73
2023/05/19 12:36:25;;;;;;;;;;;;;;;21.29;47.09;101903.00;2327616;75;51757;-73
2023/05/19 12:39:27;;;;;;;;;;;;;;;21.29;47.24;101908.90;2350255;74;50045;-74
2023/05/19 12:42:34;;;;;;;;;;;;;;;21.28;47.29;101905.88;2350424;75;51541;-73
2023/05/19 12:45:35;;;;;;;;;;;;;;;21.28;47.13;101909.92;2350425;74;50895;-74
2023/05/19 12:48:42;;;;;;;;;;;;;;;21.27;47.32;101910.91;2354552;75;51492;-72
2023/05/19 12:51:45;;;;;;;;;;;;;;;21.25;47.32;101907.06;2328328;75;52419;-72
2023/05/19 12:54:46;;;;;;;;;;;;;;;21.23;47.41;101904.20;2353643;75;52415;-73
2023/05/19 12:57:50;;;;;;;;;;;;;;;21.22;47.47;101896.64;2353380;75;51431;-73
2023/05/19 13:00:52;;;;;;;;;;;;;;;21.25;47.40;101890.08;2355750;75;51550;-74
2023/05/19 13:03:53;;;;;;;;;;;;;;;21.28;47.33;101888.38;2328911;75;52498;-73
2023/05/19 13:06:55;;;;;;;;;;;;;;;21.27;47.37;101887.55;2355265;74;51485;-73
2023/05/19 13:09:57;;;;;;;;;;;;;;;21.26;47.42;101886.36;2355480;75;51450;-73
2023/05/19 13:12:59;;;;;;;;;;;;;;;21.26;47.53;101881.81;2355758;74;51537;-74
2023/05/19 13:16:00;;;;;;;;;;;;;;;21.24;47.60;101892.41;2387352;74;51843;-74
2023/05/19 13:19:02;;;;;;;;;;;;;;;21.22;47.73;101889.05;2332197;75;50584;-73
2023/05/19 13:22:03;;;;;;;;;;;;;;;21.21;47.88;101894.11;2366111;75;51347;-72
2023/05/19 13:25:05;;;;;;;;;;;;;;;21.24;47.70;101884.34;2365845;75;51421;-72
2023/05/19 13:28:07;;;;;;;;;;;;;;;21.24;47.62;101887.86;2359998;75;51449;-72
2023/05/19 13:31:08;;;;;;;;;;;;;;;21.28;47.53;101877.61;2360517;75;50366;-73
2023/05/19 13:34:10;;;;;;;;;;;;;;;21.28;47.52;101877.61;2360539;75;50619;-74
2023/05/19 13:37:12;;;;;;;;;;;;;;;21.27;47.65;101878.61;2365882;75;51427;-73
2023/05/19 13:40:14;;;;;;;;;;;;;;;21.23;47.81;101881.33;2332465;75;51732;-73
2023/05/19 13:43:16;;;;;;;;;;;;;;;21.23;47.79;101878.13;2361344;75;51537;-73
2023/05/19 13:46:17;;;;;;;;;;;;;;;21.23;47.85;101871.91;2359235;74;51602;-73
2023/05/19 13:49:19;;;;;;;;;;;;;;;21.22;47.93;101872.41;2363143;75;51415;-73
2023/05/19 13:52:21;;;;;;;;;;;;;;;21.20;47.97;101877.63;2334453;75;50964;-74
2023/05/19 13:55:22;;;;;;;;;;;;;;;21.19;48.01;101867.86;2362599;75;50679;-73
2023/05/19 13:58:24;;;;;;;;;;;;;;;21.19;47.97;101879.97;2360790;75;50388;-73
2023/05/19 14:01:25;;;;;;;;;;;;;;;21.18;47.97;101884.52;2360944;75;50441;-73
2023/05/19 14:04:27;;;;;;;;;;;;;;;21.16;47.98;101885.70;2389466;73;50992;-73
2023/05/19 14:07:29;;;;;;;;;;;;;;;21.18;47.91;101889.91;2362596;75;50665;-72
2023/05/19 14:10:31;;;;;;;;;;;;;;;21.15;47.96;101881.34;2366972;75;50710;-72
2023/05/19 14:13:33;;;;;;;;;;;;;;;21.18;47.82;101883.17;2360912;75;51437;-73
2023/05/19 14:16:34;;;;;;;;;;;;;;;21.20;47.79;101887.05;2389359;73;51695;-73
2023/05/19 14:19:36;;;;;;;;;;;;;;;21.18;47.93;101877.79;2358529;75;50623;-72
2023/05/19 14:22:37;;;;;;;;;;;;;;;21.17;47.88;101878.81;2355516;75;51625;-72
2023/05/19 14:25:39;;;;;;;;;;;;;;;21.18;47.89;101881.83;2350313;75;51563;-72
2023/05/19 14:28:40;;;;;;;;;;;;;;;21.20;47.88;101877.63;2327726;75;52291;-72
2023/05/19 14:31:42;;;;;;;;;;;;;;;21.21;47.81;101875.27;2354698;75;51288;-72
2023/05/19 14:34:44;;;;;;;;;;;;;;;21.22;47.82;101877.80;2354678;75;51560;-75
2023/05/19 14:37:45;;;;;;;;;;;;;;;21.25;47.76;101880.66;2350167;75;51386;-72
2023/05/19 14:40:47;;;;;;;;;;;;;;;21.23;47.88;101882.67;2377441;74;51151;-73
2023/05/19 14:43:49;;;;;;;;;;;;;;;21.22;47.85;101881.84;2350313;75;51516;-73
2023/05/19 14:46:50;;;;;;;;;;;;;;;21.22;47.86;101884.53;2354717;75;51578;-73
2023/05/19 14:49:52;;;;;;;;;;;;;;;21.19;47.94;101885.35;2355742;75;53605;-72
2023/05/19 14:52:54;;;;;;;;;;;;;;;21.20;47.91;101885.70;2327390;75;52332;-74
2023/05/19 14:55:55;;;;;;;;;;;;;;;21.18;48.01;101886.38;2355552;75;51550;-74
2023/05/19 14:58:57;;;;;;;;;;;;;;;21.15;48.02;101882.17;2353592;75;51425;-73
2023/05/19 15:01:59;;;;;;;;;;;;;;;21.18;47.96;101891.76;2355643;74;50708;-73
2023/05/19 15:05:01;;;;;;;;;;;;;;;21.21;47.94;101892.76;2386252;74;49633;-73
2023/05/19 15:08:02;;;;;;;;;;;;;;;21.26;47.80;101889.05;2355884;75;50753;-74
2023/05/19 15:11:04;;;;;;;;;;;;;;;21.26;47.74;101880.46;2353799;75;50232;-73
2023/05/19 15:14:05;;;;;;;;;;;;;;;21.25;47.82;101883.34;2356146;75;50066;-73
2023/05/19 15:17:07;;;;;;;;;;;;;;;21.20;47.98;101883.02;2326462;75;49480;-74
2023/05/19 15:20:09;;;;;;;;;;;;;;;21.20;48.05;101886.55;2358663;75;50083;-72
2023/05/19 15:23:10;;;;;;;;;;;;;;;21.23;47.99;101886.70;2360867;75;50188;-72
2023/05/19 15:26:12;;;;;;;;;;;;;;;21.27;47.86;101886.69;2365666;75;50232;-73
2023/05/19 15:29:14;;;;;;;;;;;;;;;21.29;47.80;101882.81;2388902;73;52365;-73
2023/05/19 15:32:15;;;;;;;;;;;;;;;21.27;47.84;101883.99;2365653;74;50208;-72
2023/05/19 15:35:17;;;;;;;;;;;;;;;21.25;47.97;101883.34;2360148;75;51595;-71